sensor_id;sensor_type;location;lat;lon;timestamp;P1;durP1;ratioP1;P2;durP2;ratioP2
73940;SDS011;62294;48.554;10.202;2022-10-31T00:00:43;4.60;;;2.78;;
73940;SDS011;62294;48.554;10.202;2022-10-31T00:03:10;4.50;;;2.50;;
73940;SDS011;62294;48.554;10.202;2022-10-31T00:05:40;4.55;;;2.28;;
73940;SDS011;62294;48.554;10.202;2022-10-31T00:08:08;4.00;;;2.38;;
73940;SDS011;62294;48.554;10.202;2022-10-31T00:10:36;4.70;;;2.70;;
73940;SDS011;62294;48.554;10.202;2022-10-31T00:13:07;6.70;;;2.78;;
73940;SDS011;62294;48.554;10.202;2022-10-31T00:15:35;4.60;;;2.90;;
73940;SDS011;62294;48.554;10.202;2022-10-31T00:18:03;3.97;;;2.72;;
73940;SDS011;62294;48.554;10.202;2022-10-31T00:20:30;3.60;;;2.60;;
73940;SDS011;62294;48.554;10.202;2022-10-31T00:22:57;4.28;;;2.38;;
73940;SDS011;62294;48.554;10.202;2022-10-31T00:25:25;5.20;;;2.63;;
73940;SDS011;62294;48.554;10.202;2022-10-31T00:27:52;4.57;;;2.53;;
73940;SDS011;62294;48.554;10.202;2022-10-31T00:30:19;4.78;;;3.05;;
73940;SDS011;62294;48.554;10.202;2022-10-31T00:32:45;6.43;;;2.85;;
73940;SDS011;62294;48.554;10.202;2022-10-31T00:35:12;5.65;;;2.75;;
73940;SDS011;62294;48.554;10.202;2022-10-31T00:37:38;6.35;;;2.80;;
73940;SDS011;62294;48.554;10.202;2022-10-31T00:40:05;4.72;;;3.05;;
73940;SDS011;62294;48.554;10.202;2022-10-31T00:42:32;5.75;;;2.55;;
73940;SDS011;62294;48.554;10.202;2022-10-31T00:44:58;5.55;;;2.50;;
73940;SDS011;62294;48.554;10.202;2022-10-31T00:47:25;4.90;;;2.55;;
73940;SDS011;62294;48.554;10.202;2022-10-31T00:49:51;5.40;;;2.55;;
73940;SDS011;62294;48.554;10.202;2022-10-31T00:52:18;3.95;;;2.70;;
73940;SDS011;62294;48.554;10.202;2022-10-31T00:54:44;4.45;;;2.80;;
73940;SDS011;62294;48.554;10.202;2022-10-31T00:57:11;4.22;;;2.50;;
73940;SDS011;62294;48.554;10.202;2022-10-31T00:59:38;9.90;;;2.70;;
73940;SDS011;62294;48.554;10.202;2022-10-31T01:02:04;4.95;;;2.35;;
73940;SDS011;62294;48.554;10.202;2022-10-31T01:04:31;4.28;;;2.47;;
73940;SDS011;62294;48.554;10.202;2022-10-31T01:06:58;3.95;;;2.25;;
73940;SDS011;62294;48.554;10.202;2022-10-31T01:09:24;5.50;;;2.13;;
73940;SDS011;62294;48.554;10.202;2022-10-31T01:11:51;5.28;;;2.47;;
73940;SDS011;62294;48.554;10.202;2022-10-31T01:14:18;6.70;;;3.35;;
73940;SDS011;62294;48.554;10.202;2022-10-31T01:16:44;4.45;;;2.83;;
73940;SDS011;62294;48.554;10.202;2022-10-31T01:19:10;3.45;;;2.33;;
73940;SDS011;62294;48.554;10.202;2022-10-31T01:21:37;5.28;;;2.70;;
73940;SDS011;62294;48.554;10.202;2022-10-31T01:24:03;5.18;;;2.83;;
73940;SDS011;62294;48.554;10.202;2022-10-31T01:26:32;4.38;;;3.00;;
73940;SDS011;62294;48.554;10.202;2022-10-31T01:29:00;6.55;;;2.70;;
73940;SDS011;62294;48.554;10.202;2022-10-31T01:31:30;5.53;;;2.70;;
73940;SDS011;62294;48.554;10.202;2022-10-31T01:34:00;5.93;;;2.70;;
73940;SDS011;62294;48.554;10.202;2022-10-31T01:36:27;7.47;;;2.17;;
73940;SDS011;62294;48.554;10.202;2022-10-31T01:38:56;3.42;;;2.53;;
73940;SDS011;62294;48.554;10.202;2022-10-31T01:41:26;5.13;;;2.15;;
73940;SDS011;62294;48.554;10.202;2022-10-31T01:43:59;3.72;;;2.20;;
73940;SDS011;62294;48.554;10.202;2022-10-31T01:49:00;2.70;;;1.67;;
73940;SDS011;62294;48.554;10.202;2022-10-31T01:51:33;3.25;;;2.20;;
73940;SDS011;62294;48.554;10.202;2022-10-31T01:54:06;4.50;;;2.15;;
73940;SDS011;62294;48.554;10.202;2022-10-31T01:56:39;5.47;;;2.30;;
73940;SDS011;62294;48.554;10.202;2022-10-31T01:59:09;7.10;;;2.78;;
73940;SDS011;62294;48.554;10.202;2022-10-31T02:01:38;4.32;;;2.65;;
73940;SDS011;62294;48.554;10.202;2022-10-31T02:04:05;7.05;;;2.50;;
73940;SDS011;62294;48.554;10.202;2022-10-31T02:09:13;5.38;;;2.47;;
73940;SDS011;62294;48.554;10.202;2022-10-31T02:11:41;3.58;;;1.98;;
73940;SDS011;62294;48.554;10.202;2022-10-31T02:14:10;4.50;;;2.40;;
73940;SDS011;62294;48.554;10.202;2022-10-31T02:16:37;4.68;;;2.15;;
73940;SDS011;62294;48.554;10.202;2022-10-31T02:19:04;2.97;;;1.88;;
73940;SDS011;62294;48.554;10.202;2022-10-31T02:21:37;7.03;;;2.38;;
73940;SDS011;62294;48.554;10.202;2022-10-31T02:27:21;5.80;;;2.72;;
73940;SDS011;62294;48.554;10.202;2022-10-31T02:43:05;3.85;;;2.38;;
73940;SDS011;62294;48.554;10.202;2022-10-31T02:48:39;7.05;;;2.53;;
73940;SDS011;62294;48.554;10.202;2022-10-31T02:51:10;4.93;;;2.40;;
73940;SDS011;62294;48.554;10.202;2022-10-31T02:53:38;3.50;;;2.20;;
73940;SDS011;62294;48.554;10.202;2022-10-31T02:56:17;3.90;;;2.10;;
73940;SDS011;62294;48.554;10.202;2022-10-31T02:58:47;4.45;;;2.40;;
73940;SDS011;62294;48.554;10.202;2022-10-31T03:04:09;5.78;;;2.50;;
73940;SDS011;62294;48.554;10.202;2022-10-31T03:09:50;5.88;;;2.30;;
73940;SDS011;62294;48.554;10.202;2022-10-31T03:17:42;6.13;;;2.22;;
73940;SDS011;62294;48.554;10.202;2022-10-31T03:20:32;4.28;;;2.47;;
73940;SDS011;62294;48.554;10.202;2022-10-31T03:23:07;3.72;;;2.17;;
73940;SDS011;62294;48.554;10.202;2022-10-31T03:25:39;3.85;;;2.15;;
73940;SDS011;62294;48.554;10.202;2022-10-31T03:28:08;5.20;;;2.65;;
73940;SDS011;62294;48.554;10.202;2022-10-31T03:30:38;8.18;;;2.13;;
73940;SDS011;62294;48.554;10.202;2022-10-31T03:33:10;6.47;;;2.40;;
73940;SDS011;62294;48.554;10.202;2022-10-31T03:35:41;4.97;;;2.55;;
73940;SDS011;62294;48.554;10.202;2022-10-31T03:38:11;5.18;;;2.67;;
73940;SDS011;62294;48.554;10.202;2022-10-31T03:40:40;4.65;;;2.33;;
73940;SDS011;62294;48.554;10.202;2022-10-31T03:43:14;3.35;;;2.17;;
73940;SDS011;62294;48.554;10.202;2022-10-31T03:45:46;3.45;;;2.30;;
73940;SDS011;62294;48.554;10.202;2022-10-31T03:48:14;3.53;;;2.20;;
73940;SDS011;62294;48.554;10.202;2022-10-31T03:53:47;5.95;;;2.28;;
73940;SDS011;62294;48.554;10.202;2022-10-31T03:58:59;3.83;;;2.00;;
73940;SDS011;62294;48.554;10.202;2022-10-31T04:01:38;4.22;;;2.03;;
73940;SDS011;62294;48.554;10.202;2022-10-31T04:04:06;7.40;;;2.50;;
73940;SDS011;62294;48.554;10.202;2022-10-31T04:06:34;5.15;;;2.17;;
73940;SDS011;62294;48.554;10.202;2022-10-31T04:09:03;3.92;;;2.25;;
73940;SDS011;62294;48.554;10.202;2022-10-31T04:11:34;4.85;;;2.22;;
73940;SDS011;62294;48.554;10.202;2022-10-31T04:14:06;3.58;;;2.22;;
73940;SDS011;62294;48.554;10.202;2022-10-31T04:16:34;4.20;;;2.45;;
73940;SDS011;62294;48.554;10.202;2022-10-31T04:19:00;4.13;;;2.45;;
73940;SDS011;62294;48.554;10.202;2022-10-31T04:21:28;12.30;;;4.57;;
73940;SDS011;62294;48.554;10.202;2022-10-31T04:23:56;9.35;;;4.05;;
73940;SDS011;62294;48.554;10.202;2022-10-31T04:26:23;10.82;;;4.75;;
73940;SDS011;62294;48.554;10.202;2022-10-31T04:28:50;9.35;;;4.78;;
73940;SDS011;62294;48.554;10.202;2022-10-31T04:31:16;8.07;;;4.00;;
73940;SDS011;62294;48.554;10.202;2022-10-31T04:33:43;8.80;;;3.60;;
73940;SDS011;62294;48.554;10.202;2022-10-31T04:36:10;4.97;;;2.90;;
73940;SDS011;62294;48.554;10.202;2022-10-31T04:38:36;6.18;;;3.13;;
73940;SDS011;62294;48.554;10.202;2022-10-31T04:41:03;5.70;;;2.55;;
73940;SDS011;62294;48.554;10.202;2022-10-31T04:43:30;4.60;;;2.58;;
73940;SDS011;62294;48.554;10.202;2022-10-31T04:45:56;5.55;;;2.85;;
73940;SDS011;62294;48.554;10.202;2022-10-31T04:48:23;4.97;;;2.25;;
73940;SDS011;62294;48.554;10.202;2022-10-31T04:50:50;3.78;;;2.25;;
73940;SDS011;62294;48.554;10.202;2022-10-31T04:53:16;6.65;;;2.33;;
73940;SDS011;62294;48.554;10.202;2022-10-31T04:55:43;4.68;;;2.50;;
73940;SDS011;62294;48.554;10.202;2022-10-31T04:58:09;4.15;;;2.60;;
73940;SDS011;62294;48.554;10.202;2022-10-31T05:00:36;5.05;;;2.65;;
73940;SDS011;62294;48.554;10.202;2022-10-31T05:03:02;3.85;;;2.13;;
73940;SDS011;62294;48.554;10.202;2022-10-31T05:05:30;4.70;;;2.10;;
73940;SDS011;62294;48.554;10.202;2022-10-31T05:07:57;5.85;;;2.60;;
73940;SDS011;62294;48.554;10.202;2022-10-31T05:10:25;3.33;;;2.35;;
73940;SDS011;62294;48.554;10.202;2022-10-31T05:12:57;3.55;;;2.38;;
73940;SDS011;62294;48.554;10.202;2022-10-31T05:15:26;4.90;;;2.60;;
73940;SDS011;62294;48.554;10.202;2022-10-31T05:17:53;5.15;;;2.45;;
73940;SDS011;62294;48.554;10.202;2022-10-31T05:20:21;7.68;;;2.65;;
73940;SDS011;62294;48.554;10.202;2022-10-31T05:22:51;3.70;;;2.50;;
73940;SDS011;62294;48.554;10.202;2022-10-31T05:25:19;5.40;;;2.38;;
73940;SDS011;62294;48.554;10.202;2022-10-31T05:27:47;3.85;;;2.30;;
73940;SDS011;62294;48.554;10.202;2022-10-31T05:30:16;4.80;;;2.30;;
73940;SDS011;62294;48.554;10.202;2022-10-31T05:32:49;4.45;;;2.47;;
73940;SDS011;62294;48.554;10.202;2022-10-31T05:35:17;4.35;;;2.58;;
73940;SDS011;62294;48.554;10.202;2022-10-31T05:37:45;4.85;;;2.20;;
73940;SDS011;62294;48.554;10.202;2022-10-31T05:40:13;4.30;;;2.60;;
73940;SDS011;62294;48.554;10.202;2022-10-31T05:42:41;4.57;;;2.50;;
73940;SDS011;62294;48.554;10.202;2022-10-31T05:45:09;5.28;;;2.40;;
73940;SDS011;62294;48.554;10.202;2022-10-31T05:47:53;4.28;;;2.15;;
73940;SDS011;62294;48.554;10.202;2022-10-31T05:50:29;8.50;;;2.60;;
73940;SDS011;62294;48.554;10.202;2022-10-31T05:53:02;7.85;;;2.75;;
73940;SDS011;62294;48.554;10.202;2022-10-31T05:55:29;3.97;;;2.28;;
73940;SDS011;62294;48.554;10.202;2022-10-31T05:57:57;6.47;;;2.22;;
73940;SDS011;62294;48.554;10.202;2022-10-31T06:00:24;5.82;;;2.53;;
73940;SDS011;62294;48.554;10.202;2022-10-31T06:03:02;3.80;;;2.22;;
73940;SDS011;62294;48.554;10.202;2022-10-31T06:05:30;5.45;;;2.13;;
73940;SDS011;62294;48.554;10.202;2022-10-31T06:07:57;4.00;;;1.90;;
73940;SDS011;62294;48.554;10.202;2022-10-31T06:10:25;4.88;;;2.28;;
73940;SDS011;62294;48.554;10.202;2022-10-31T06:12:52;5.05;;;2.30;;
73940;SDS011;62294;48.554;10.202;2022-10-31T06:15:19;5.05;;;2.63;;
73940;SDS011;62294;48.554;10.202;2022-10-31T06:17:59;3.47;;;2.28;;
73940;SDS011;62294;48.554;10.202;2022-10-31T06:20:32;3.10;;;1.92;;
73940;SDS011;62294;48.554;10.202;2022-10-31T06:22:59;5.25;;;2.20;;
73940;SDS011;62294;48.554;10.202;2022-10-31T06:25:27;5.72;;;2.58;;
73940;SDS011;62294;48.554;10.202;2022-10-31T06:27:54;4.68;;;2.30;;
73940;SDS011;62294;48.554;10.202;2022-10-31T06:30:22;2.97;;;1.80;;
73940;SDS011;62294;48.554;10.202;2022-10-31T06:32:48;4.35;;;2.22;;
73940;SDS011;62294;48.554;10.202;2022-10-31T06:35:15;9.30;;;2.47;;
73940;SDS011;62294;48.554;10.202;2022-10-31T06:37:42;4.80;;;2.42;;
73940;SDS011;62294;48.554;10.202;2022-10-31T06:40:14;4.80;;;2.60;;
73940;SDS011;62294;48.554;10.202;2022-10-31T06:42:41;8.77;;;2.45;;
73940;SDS011;62294;48.554;10.202;2022-10-31T06:45:07;4.35;;;2.47;;
73940;SDS011;62294;48.554;10.202;2022-10-31T06:47:34;5.05;;;2.45;;
73940;SDS011;62294;48.554;10.202;2022-10-31T06:50:21;5.35;;;2.75;;
73940;SDS011;62294;48.554;10.202;2022-10-31T06:52:55;5.95;;;2.17;;
73940;SDS011;62294;48.554;10.202;2022-10-31T06:55:24;2.83;;;2.10;;
73940;SDS011;62294;48.554;10.202;2022-10-31T06:57:53;3.55;;;2.38;;
73940;SDS011;62294;48.554;10.202;2022-10-31T07:00:28;4.80;;;2.85;;
73940;SDS011;62294;48.554;10.202;2022-10-31T07:02:56;4.82;;;2.65;;
73940;SDS011;62294;48.554;10.202;2022-10-31T07:05:24;7.47;;;3.35;;
73940;SDS011;62294;48.554;10.202;2022-10-31T07:07:52;8.10;;;3.30;;
73940;SDS011;62294;48.554;10.202;2022-10-31T07:10:22;7.20;;;4.00;;
73940;SDS011;62294;48.554;10.202;2022-10-31T07:12:56;14.93;;;4.88;;
73940;SDS011;62294;48.554;10.202;2022-10-31T07:15:25;9.80;;;4.63;;
73940;SDS011;62294;48.554;10.202;2022-10-31T07:17:54;11.38;;;5.00;;
73940;SDS011;62294;48.554;10.202;2022-10-31T07:20:26;14.70;;;5.70;;
73940;SDS011;62294;48.554;10.202;2022-10-31T07:22:52;13.32;;;5.55;;
73940;SDS011;62294;48.554;10.202;2022-10-31T07:25:19;24.05;;;8.45;;
73940;SDS011;62294;48.554;10.202;2022-10-31T07:27:46;17.15;;;7.57;;
73940;SDS011;62294;48.554;10.202;2022-10-31T07:30:12;15.85;;;6.70;;
73940;SDS011;62294;48.554;10.202;2022-10-31T07:32:44;15.00;;;6.60;;
73940;SDS011;62294;48.554;10.202;2022-10-31T07:35:15;19.73;;;8.57;;
73940;SDS011;62294;48.554;10.202;2022-10-31T07:37:44;18.65;;;8.80;;
73940;SDS011;62294;48.554;10.202;2022-10-31T07:40:10;22.80;;;9.13;;
73940;SDS011;62294;48.554;10.202;2022-10-31T07:42:38;21.70;;;8.15;;
73940;SDS011;62294;48.554;10.202;2022-10-31T07:45:07;20.40;;;8.82;;
73940;SDS011;62294;48.554;10.202;2022-10-31T07:50:10;23.73;;;11.02;;
73940;SDS011;62294;48.554;10.202;2022-10-31T07:52:37;19.98;;;8.35;;
73940;SDS011;62294;48.554;10.202;2022-10-31T07:55:05;15.57;;;7.22;;
73940;SDS011;62294;48.554;10.202;2022-10-31T07:57:31;19.88;;;8.40;;
73940;SDS011;62294;48.554;10.202;2022-10-31T08:00:00;20.90;;;8.70;;
73940;SDS011;62294;48.554;10.202;2022-10-31T08:02:27;18.48;;;8.93;;
73940;SDS011;62294;48.554;10.202;2022-10-31T08:04:53;17.90;;;8.38;;
73940;SDS011;62294;48.554;10.202;2022-10-31T08:07:26;16.52;;;8.50;;
73940;SDS011;62294;48.554;10.202;2022-10-31T08:09:53;17.58;;;8.90;;
73940;SDS011;62294;48.554;10.202;2022-10-31T08:12:20;21.02;;;9.85;;
73940;SDS011;62294;48.554;10.202;2022-10-31T08:14:47;19.88;;;9.45;;
73940;SDS011;62294;48.554;10.202;2022-10-31T08:17:14;14.13;;;6.90;;
73940;SDS011;62294;48.554;10.202;2022-10-31T08:19:40;14.23;;;5.97;;
73940;SDS011;62294;48.554;10.202;2022-10-31T08:22:06;13.48;;;6.00;;
73940;SDS011;62294;48.554;10.202;2022-10-31T08:24:33;10.82;;;5.47;;
73940;SDS011;62294;48.554;10.202;2022-10-31T08:27:00;11.80;;;5.55;;
73940;SDS011;62294;48.554;10.202;2022-10-31T08:29:26;9.35;;;4.57;;
73940;SDS011;62294;48.554;10.202;2022-10-31T08:31:53;10.10;;;5.05;;
73940;SDS011;62294;48.554;10.202;2022-10-31T08:34:19;8.27;;;4.50;;
73940;SDS011;62294;48.554;10.202;2022-10-31T08:36:46;11.18;;;4.50;;
73940;SDS011;62294;48.554;10.202;2022-10-31T08:39:12;8.98;;;4.45;;
73940;SDS011;62294;48.554;10.202;2022-10-31T08:41:39;8.98;;;3.70;;
73940;SDS011;62294;48.554;10.202;2022-10-31T08:44:05;8.50;;;4.13;;
73940;SDS011;62294;48.554;10.202;2022-10-31T08:46:32;8.57;;;4.65;;
73940;SDS011;62294;48.554;10.202;2022-10-31T08:48:58;10.43;;;4.68;;
73940;SDS011;62294;48.554;10.202;2022-10-31T08:51:25;8.30;;;4.65;;
73940;SDS011;62294;48.554;10.202;2022-10-31T08:53:52;9.82;;;4.80;;
73940;SDS011;62294;48.554;10.202;2022-10-31T08:56:18;11.65;;;5.70;;
73940;SDS011;62294;48.554;10.202;2022-10-31T08:58:45;8.05;;;4.32;;
73940;SDS011;62294;48.554;10.202;2022-10-31T09:01:11;10.48;;;5.28;;
73940;SDS011;62294;48.554;10.202;2022-10-31T09:03:38;8.20;;;5.80;;
73940;SDS011;62294;48.554;10.202;2022-10-31T09:06:04;7.13;;;4.60;;
73940;SDS011;62294;48.554;10.202;2022-10-31T09:08:34;8.38;;;5.53;;
73940;SDS011;62294;48.554;10.202;2022-10-31T09:11:02;10.05;;;4.50;;
73940;SDS011;62294;48.554;10.202;2022-10-31T09:13:30;7.80;;;4.90;;
73940;SDS011;62294;48.554;10.202;2022-10-31T09:15:56;9.35;;;5.15;;
73940;SDS011;62294;48.554;10.202;2022-10-31T09:18:24;9.73;;;5.53;;
73940;SDS011;62294;48.554;10.202;2022-10-31T09:20:56;8.18;;;4.88;;
73940;SDS011;62294;48.554;10.202;2022-10-31T09:23:24;10.23;;;4.47;;
73940;SDS011;62294;48.554;10.202;2022-10-31T09:25:51;8.65;;;4.75;;
73940;SDS011;62294;48.554;10.202;2022-10-31T09:28:20;9.23;;;4.82;;
73940;SDS011;62294;48.554;10.202;2022-10-31T09:30:49;6.38;;;4.72;;
73940;SDS011;62294;48.554;10.202;2022-10-31T09:33:17;8.40;;;4.75;;
73940;SDS011;62294;48.554;10.202;2022-10-31T09:35:44;7.47;;;4.38;;
73940;SDS011;62294;48.554;10.202;2022-10-31T09:38:14;10.77;;;5.20;;
73940;SDS011;62294;48.554;10.202;2022-10-31T09:40:43;9.73;;;4.72;;
73940;SDS011;62294;48.554;10.202;2022-10-31T09:43:22;7.78;;;4.15;;
73940;SDS011;62294;48.554;10.202;2022-10-31T09:46:00;6.47;;;4.82;;
73940;SDS011;62294;48.554;10.202;2022-10-31T09:51:30;7.53;;;4.93;;
73940;SDS011;62294;48.554;10.202;2022-10-31T09:54:10;6.07;;;4.47;;
73940;SDS011;62294;48.554;10.202;2022-10-31T09:56:42;8.02;;;4.45;;
73940;SDS011;62294;48.554;10.202;2022-10-31T09:59:13;7.55;;;4.38;;
73940;SDS011;62294;48.554;10.202;2022-10-31T10:01:48;6.97;;;4.22;;
73940;SDS011;62294;48.554;10.202;2022-10-31T10:10:00;10.02;;;5.20;;
73940;SDS011;62294;48.554;10.202;2022-10-31T10:12:44;7.63;;;4.55;;
73940;SDS011;62294;48.554;10.202;2022-10-31T10:26:26;11.38;;;5.78;;
73940;SDS011;62294;48.554;10.202;2022-10-31T10:29:01;9.73;;;5.68;;
73940;SDS011;62294;48.554;10.202;2022-10-31T10:31:35;10.50;;;4.90;;
73940;SDS011;62294;48.554;10.202;2022-10-31T10:36:46;12.73;;;5.60;;
73940;SDS011;62294;48.554;10.202;2022-10-31T10:39:20;12.60;;;6.93;;
73940;SDS011;62294;48.554;10.202;2022-10-31T10:41:59;16.45;;;6.78;;
73940;SDS011;62294;48.554;10.202;2022-10-31T10:44:48;15.32;;;6.88;;
73940;SDS011;62294;48.554;10.202;2022-10-31T10:47:36;13.98;;;7.43;;
73940;SDS011;62294;48.554;10.202;2022-10-31T10:50:18;19.40;;;7.38;;
73940;SDS011;62294;48.554;10.202;2022-10-31T10:53:00;10.70;;;5.70;;
73940;SDS011;62294;48.554;10.202;2022-10-31T10:58:24;14.57;;;6.47;;
73940;SDS011;62294;48.554;10.202;2022-10-31T11:00:52;13.50;;;7.28;;
73940;SDS011;62294;48.554;10.202;2022-10-31T11:03:20;11.55;;;7.03;;
73940;SDS011;62294;48.554;10.202;2022-10-31T11:05:53;10.75;;;6.25;;
73940;SDS011;62294;48.554;10.202;2022-10-31T11:08:30;9.95;;;7.28;;
73940;SDS011;62294;48.554;10.202;2022-10-31T11:11:04;13.85;;;7.38;;
73940;SDS011;62294;48.554;10.202;2022-10-31T11:13:37;11.85;;;6.97;;
73940;SDS011;62294;48.554;10.202;2022-10-31T11:16:08;11.88;;;6.97;;
73940;SDS011;62294;48.554;10.202;2022-10-31T11:18:38;14.70;;;6.80;;
73940;SDS011;62294;48.554;10.202;2022-10-31T11:21:19;14.80;;;7.28;;
73940;SDS011;62294;48.554;10.202;2022-10-31T11:24:30;15.13;;;7.70;;
73940;SDS011;62294;48.554;10.202;2022-10-31T11:26:52;12.25;;;7.53;;
73940;SDS011;62294;48.554;10.202;2022-10-31T11:29:36;13.95;;;8.45;;
73940;SDS011;62294;48.554;10.202;2022-10-31T11:32:03;11.15;;;7.28;;
73940;SDS011;62294;48.554;10.202;2022-10-31T11:34:31;13.07;;;7.30;;
73940;SDS011;62294;48.554;10.202;2022-10-31T11:37:08;15.15;;;9.85;;
73940;SDS011;62294;48.554;10.202;2022-10-31T11:39:40;18.40;;;14.00;;
73940;SDS011;62294;48.554;10.202;2022-10-31T11:42:08;21.10;;;10.65;;
73940;SDS011;62294;48.554;10.202;2022-10-31T11:44:35;16.77;;;10.77;;
73940;SDS011;62294;48.554;10.202;2022-10-31T11:47:02;15.75;;;10.32;;
73940;SDS011;62294;48.554;10.202;2022-10-31T11:49:33;19.35;;;11.48;;
73940;SDS011;62294;48.554;10.202;2022-10-31T11:54:45;23.02;;;12.73;;
73940;SDS011;62294;48.554;10.202;2022-10-31T11:57:46;16.90;;;10.65;;
73940;SDS011;62294;48.554;10.202;2022-10-31T12:00:19;18.70;;;9.88;;
73940;SDS011;62294;48.554;10.202;2022-10-31T12:02:51;25.15;;;13.30;;
73940;SDS011;62294;48.554;10.202;2022-10-31T12:05:55;27.83;;;14.52;;
73940;SDS011;62294;48.554;10.202;2022-10-31T12:08:37;28.00;;;14.38;;
73940;SDS011;62294;48.554;10.202;2022-10-31T12:14:25;20.00;;;9.35;;
73940;SDS011;62294;48.554;10.202;2022-10-31T12:16:57;19.30;;;11.88;;
73940;SDS011;62294;48.554;10.202;2022-10-31T12:19:36;23.88;;;13.10;;
73940;SDS011;62294;48.554;10.202;2022-10-31T12:25:21;26.35;;;15.27;;
73940;SDS011;62294;48.554;10.202;2022-10-31T12:28:28;25.42;;;15.65;;
73940;SDS011;62294;48.554;10.202;2022-10-31T12:36:29;32.13;;;17.00;;
73940;SDS011;62294;48.554;10.202;2022-10-31T12:39:06;28.77;;;16.00;;
73940;SDS011;62294;48.554;10.202;2022-10-31T12:47:36;28.98;;;13.57;;
73940;SDS011;62294;48.554;10.202;2022-10-31T12:50:44;25.27;;;13.05;;
73940;SDS011;62294;48.554;10.202;2022-10-31T13:01:53;24.73;;;12.18;;
73940;SDS011;62294;48.554;10.202;2022-10-31T13:04:44;21.15;;;12.77;;
73940;SDS011;62294;48.554;10.202;2022-10-31T13:12:38;24.10;;;13.00;;
73940;SDS011;62294;48.554;10.202;2022-10-31T13:15:21;21.08;;;12.75;;
73940;SDS011;62294;48.554;10.202;2022-10-31T13:18:04;27.23;;;17.00;;
73940;SDS011;62294;48.554;10.202;2022-10-31T13:20:45;26.75;;;15.95;;
73940;SDS011;62294;48.554;10.202;2022-10-31T13:23:31;25.40;;;14.70;;
73940;SDS011;62294;48.554;10.202;2022-10-31T13:26:59;24.00;;;14.15;;
73940;SDS011;62294;48.554;10.202;2022-10-31T13:29:40;30.73;;;16.42;;
73940;SDS011;62294;48.554;10.202;2022-10-31T13:32:09;29.08;;;17.17;;
73940;SDS011;62294;48.554;10.202;2022-10-31T13:34:37;32.92;;;16.73;;
73940;SDS011;62294;48.554;10.202;2022-10-31T13:37:21;29.30;;;17.08;;
73940;SDS011;62294;48.554;10.202;2022-10-31T13:43:34;31.15;;;16.77;;
73940;SDS011;62294;48.554;10.202;2022-10-31T13:51:52;33.53;;;18.20;;
73940;SDS011;62294;48.554;10.202;2022-10-31T13:54:20;26.58;;;16.00;;
73940;SDS011;62294;48.554;10.202;2022-10-31T13:57:00;34.05;;;17.75;;
73940;SDS011;62294;48.554;10.202;2022-10-31T13:59:27;28.85;;;16.55;;
73940;SDS011;62294;48.554;10.202;2022-10-31T14:02:01;25.45;;;15.90;;
73940;SDS011;62294;48.554;10.202;2022-10-31T14:04:44;33.45;;;17.75;;
73940;SDS011;62294;48.554;10.202;2022-10-31T14:07:14;30.75;;;17.75;;
73940;SDS011;62294;48.554;10.202;2022-10-31T14:09:56;34.70;;;18.83;;
73940;SDS011;62294;48.554;10.202;2022-10-31T14:17:38;36.92;;;20.08;;
73940;SDS011;62294;48.554;10.202;2022-10-31T14:22:40;41.10;;;18.52;;
73940;SDS011;62294;48.554;10.202;2022-10-31T14:25:27;31.95;;;17.75;;
73940;SDS011;62294;48.554;10.202;2022-10-31T14:27:55;29.75;;;16.08;;
73940;SDS011;62294;48.554;10.202;2022-10-31T14:30:23;31.25;;;17.60;;
73940;SDS011;62294;48.554;10.202;2022-10-31T14:32:53;27.70;;;15.90;;
73940;SDS011;62294;48.554;10.202;2022-10-31T14:35:37;34.00;;;17.65;;
73940;SDS011;62294;48.554;10.202;2022-10-31T14:39:13;34.90;;;18.33;;
73940;SDS011;62294;48.554;10.202;2022-10-31T14:49:28;32.80;;;15.52;;
73940;SDS011;62294;48.554;10.202;2022-10-31T14:52:10;31.92;;;15.70;;
73940;SDS011;62294;48.554;10.202;2022-10-31T14:54:41;29.88;;;16.52;;
73940;SDS011;62294;48.554;10.202;2022-10-31T14:57:15;25.60;;;14.27;;
73940;SDS011;62294;48.554;10.202;2022-10-31T14:59:46;25.23;;;13.20;;
73940;SDS011;62294;48.554;10.202;2022-10-31T15:02:22;21.67;;;11.93;;
73940;SDS011;62294;48.554;10.202;2022-10-31T15:04:53;20.65;;;11.80;;
73940;SDS011;62294;48.554;10.202;2022-10-31T15:07:25;25.05;;;12.77;;
73940;SDS011;62294;48.554;10.202;2022-10-31T15:10:00;23.77;;;12.88;;
73940;SDS011;62294;48.554;10.202;2022-10-31T15:12:29;24.67;;;12.85;;
73940;SDS011;62294;48.554;10.202;2022-10-31T15:18:00;25.40;;;14.55;;
73940;SDS011;62294;48.554;10.202;2022-10-31T15:20:30;25.02;;;14.13;;
73940;SDS011;62294;48.554;10.202;2022-10-31T15:23:03;28.00;;;15.60;;
73940;SDS011;62294;48.554;10.202;2022-10-31T15:25:33;29.45;;;17.90;;
73940;SDS011;62294;48.554;10.202;2022-10-31T15:28:01;24.65;;;15.45;;
73940;SDS011;62294;48.554;10.202;2022-10-31T15:30:38;26.08;;;15.57;;
73940;SDS011;62294;48.554;10.202;2022-10-31T15:33:21;29.20;;;17.98;;
73940;SDS011;62294;48.554;10.202;2022-10-31T15:36:05;36.28;;;19.70;;
73940;SDS011;62294;48.554;10.202;2022-10-31T15:38:32;38.22;;;20.65;;
73940;SDS011;62294;48.554;10.202;2022-10-31T15:41:03;32.22;;;17.95;;
73940;SDS011;62294;48.554;10.202;2022-10-31T15:43:34;32.03;;;17.85;;
73940;SDS011;62294;48.554;10.202;2022-10-31T15:46:03;32.15;;;18.20;;
73940;SDS011;62294;48.554;10.202;2022-10-31T15:48:32;30.38;;;17.52;;
73940;SDS011;62294;48.554;10.202;2022-10-31T15:51:00;28.60;;;16.80;;
73940;SDS011;62294;48.554;10.202;2022-10-31T15:53:34;28.05;;;17.27;;
73940;SDS011;62294;48.554;10.202;2022-10-31T15:56:07;27.63;;;16.50;;
73940;SDS011;62294;48.554;10.202;2022-10-31T15:58:44;32.97;;;18.65;;
73940;SDS011;62294;48.554;10.202;2022-10-31T16:01:21;30.17;;;17.33;;
73940;SDS011;62294;48.554;10.202;2022-10-31T16:04:01;34.25;;;18.75;;
73940;SDS011;62294;48.554;10.202;2022-10-31T16:06:33;28.25;;;18.00;;
73940;SDS011;62294;48.554;10.202;2022-10-31T16:09:01;27.33;;;17.08;;
73940;SDS011;62294;48.554;10.202;2022-10-31T16:16:40;23.48;;;13.85;;
73940;SDS011;62294;48.554;10.202;2022-10-31T16:19:18;24.00;;;13.80;;
73940;SDS011;62294;48.554;10.202;2022-10-31T16:22:10;23.42;;;13.75;;
73940;SDS011;62294;48.554;10.202;2022-10-31T16:29:46;24.77;;;14.80;;
73940;SDS011;62294;48.554;10.202;2022-10-31T16:37:34;26.50;;;14.40;;
73940;SDS011;62294;48.554;10.202;2022-10-31T16:40:03;25.23;;;14.48;;
73940;SDS011;62294;48.554;10.202;2022-10-31T16:42:30;23.98;;;12.93;;
73940;SDS011;62294;48.554;10.202;2022-10-31T16:44:57;22.02;;;12.82;;
73940;SDS011;62294;48.554;10.202;2022-10-31T16:47:25;19.73;;;12.23;;
73940;SDS011;62294;48.554;10.202;2022-10-31T16:49:53;23.83;;;13.55;;
73940;SDS011;62294;48.554;10.202;2022-10-31T16:52:20;17.50;;;11.88;;
73940;SDS011;62294;48.554;10.202;2022-10-31T16:54:47;21.50;;;13.20;;
73940;SDS011;62294;48.554;10.202;2022-10-31T16:57:17;20.52;;;12.77;;
73940;SDS011;62294;48.554;10.202;2022-10-31T16:59:51;20.73;;;12.65;;
73940;SDS011;62294;48.554;10.202;2022-10-31T17:02:19;22.85;;;12.77;;
73940;SDS011;62294;48.554;10.202;2022-10-31T17:04:47;22.33;;;14.32;;
73940;SDS011;62294;48.554;10.202;2022-10-31T17:07:19;17.02;;;11.02;;
73940;SDS011;62294;48.554;10.202;2022-10-31T17:09:46;21.77;;;12.20;;
73940;SDS011;62294;48.554;10.202;2022-10-31T17:12:17;17.38;;;10.73;;
73940;SDS011;62294;48.554;10.202;2022-10-31T17:14:47;19.08;;;10.30;;
73940;SDS011;62294;48.554;10.202;2022-10-31T17:17:17;18.35;;;9.07;;